Time;durP1;ratioP1;P1;durP2;ratioP2;P2;SDS_P1;SDS_P2;PMS_P1;PMS_P2;Temp;Humidity;BMP_temperature;BMP_pressure;BME280_temperature;BME280_humidity;BME280_pressure;Samples;Min_cycle;Max_cycle;Signal;HPM_P1;HPM_P2
2022/05/16 19:16:58;;;;;;;5.80;1.42;;;26.00;66.70;;;;;;5061503;28;21393;-45
2022/05/16 19:19:24;;;;;;;6.80;3.25;;;26.70;62.50;;;;;;5037418;28;20077;-45
2022/05/16 19:21:51;;;;;;;6.80;2.92;;;26.90;61.50;;;;;;5039250;28;23221;-60
2022/05/16 19:24:18;;;;;;;8.23;3.08;;;27.00;62.60;;;;;;5032280;28;22028;-46
2022/05/16 19:26:44;;;;;;;17.08;2.75;;;27.10;61.30;;;;;;5036421;28;25079;-44
2022/05/16 19:36:21;;;;;;;13.23;2.10;;;27.60;61.60;;;;;;5005604;28;81963;-41
2022/05/16 19:38:57;;;;;;;14.43;2.10;;;27.80;61.00;;;;;;4993504;28;81376;-45
2022/05/16 19:41:23;;;;;;;9.27;3.20;;;28.00;60.10;;;;;;4991724;28;81164;-46
2022/05/16 19:43:49;;;;;;;17.65;3.00;;;28.00;60.50;;;;;;4997039;28;83043;-42
2022/05/16 19:46:15;;;;;;;6.50;2.65;;;28.30;60.80;;;;;;4995463;28;81996;-42
2022/05/16 19:48:42;;;;;;;8.02;2.40;;;28.50;59.70;;;;;;4989917;28;81600;-39
2022/05/16 19:51:08;;;;;;;8.38;2.55;;;28.90;59.70;;;;;;4992166;28;81773;-41
2022/05/16 19:57:06;;;;;;;4.43;1.88;;;28.30;58.60;;;;;;4993049;28;81645;-70
2022/05/16 19:59:32;;;;;;;9.63;1.70;;;25.50;62.30;;;;;;4973311;28;81543;-70
2022/05/16 20:01:59;;;;;;;4.30;1.70;;;22.90;70.30;;;;;;4973966;28;81522;-69
2022/05/16 20:04:25;;;;;;;7.25;2.42;;;20.80;77.40;;;;;;4973282;28;82128;-68
2022/05/16 20:06:51;;;;;;;7.57;2.13;;;19.90;83.30;;;;;;4970284;28;84146;-69
2022/05/16 20:09:17;;;;;;;6.05;1.95;;;19.10;87.20;;;;;;4971557;28;81350;-70
2022/05/16 20:11:46;;;;;;;5.80;1.63;;;18.50;90.20;;;;;;4974225;28;81724;-69
2022/05/16 20:14:14;;;;;;;6.22;1.80;;;18.10;91.90;;;;;;4972149;28;81949;-69
2022/05/16 20:16:40;;;;;;;7.20;1.50;;;17.90;92.60;;;;;;4967568;28;82552;-69
2022/05/16 20:19:06;;;;;;;4.60;1.20;;;17.60;94.10;;;;;;4977348;28;81652;-70
2022/05/16 20:21:31;;;;;;;4.78;1.40;;;17.50;94.60;;;;;;4976829;28;81472;-70
2022/05/16 20:26:41;;;;;;;6.22;1.20;;;17.20;95.20;;;;;;4975501;28;81372;-69
2022/05/16 20:29:09;;;;;;;5.07;1.02;;;17.10;96.20;;;;;;4977256;28;81967;-69
2022/05/16 20:31:37;;;;;;;5.78;1.40;;;17.10;96.10;;;;;;4972164;28;81535;-70
2022/05/16 20:34:09;;;;;;;4.32;1.20;;;17.10;96.30;;;;;;4972430;28;81453;-69
2022/05/16 20:36:35;;;;;;;5.75;1.20;;;17.20;96.60;;;;;;4969849;28;81684;-69
2022/05/16 20:39:03;;;;;;;5.32;1.00;;;17.10;96.80;;;;;;4968907;28;81645;-69
2022/05/16 20:41:29;;;;;;;3.28;1.00;;;17.20;98.10;;;;;;4973128;28;81885;-69
2022/05/16 20:43:55;;;;;;;1.60;0.63;;;17.20;96.90;;;;;;4972168;28;83257;-69
2022/05/16 20:46:21;;;;;;;4.57;1.08;;;17.40;96.80;;;;;;4971590;28;82283;-69
2022/05/16 20:48:48;;;;;;;2.70;0.77;;;17.40;96.70;;;;;;4957930;28;81441;-68
2022/05/16 20:51:14;;;;;;;5.40;1.00;;;17.40;96.30;;;;;;4956540;28;81422;-69
2022/05/16 20:53:39;;;;;;;3.30;0.77;;;17.40;96.60;;;;;;4952442;28;81407;-69
2022/05/16 20:56:05;;;;;;;4.22;1.00;;;17.40;96.80;;;;;;4953913;28;81659;-68
2022/05/16 20:58:34;;;;;;;3.80;1.02;;;17.40;95.80;;;;;;4938322;28;82360;-69
2022/05/16 21:01:00;;;;;;;3.47;0.65;;;17.40;96.50;;;;;;4936404;28;81861;-69
2022/05/16 21:03:26;;;;;;;7.32;0.90;;;17.40;96.30;;;;;;4937995;28;83730;-70
2022/05/16 21:05:52;;;;;;;3.28;0.80;;;17.40;95.30;;;;;;4954956;28;81450;-69
2022/05/16 21:08:18;;;;;;;3.40;0.70;;;17.50;95.70;;;;;;4942196;28;81917;-69
2022/05/16 21:10:44;;;;;;;1.92;0.60;;;17.60;94.80;;;;;;4942853;28;81705;-70
2022/05/16 21:13:12;;;;;;;3.83;0.73;;;17.60;94.70;;;;;;4942322;28;81258;-70
2022/05/16 21:15:39;;;;;;;5.10;0.85;;;17.70;94.00;;;;;;4936260;28;81682;-70
2022/05/16 21:18:07;;;;;;;4.32;0.80;;;17.70;94.40;;;;;;4940043;28;81121;-70
2022/05/16 21:20:33;;;;;;;4.82;0.82;;;17.80;94.50;;;;;;4942688;28;81561;-71
2022/05/16 21:22:59;;;;;;;5.35;0.80;;;17.80;93.20;;;;;;4933810;28;81519;-70
2022/05/16 21:25:25;;;;;;;3.95;0.57;;;17.80;93.30;;;;;;4941496;28;82503;-70
2022/05/16 21:27:50;;;;;;;2.88;0.75;;;17.80;93.50;;;;;;4940418;28;81721;-71
2022/05/16 21:30:22;;;;;;;4.63;0.85;;;17.80;92.60;;;;;;4940320;28;81596;-71
2022/05/16 21:32:48;;;;;;;4.88;0.63;;;17.80;93.30;;;;;;4935530;28;82227;-70
2022/05/16 21:35:16;;;;;;;3.63;0.70;;;17.90;92.60;;;;;;4923336;28;81618;-70
2022/05/16 21:37:42;;;;;;;4.53;1.25;;;17.90;92.40;;;;;;4941778;28;81496;-70
2022/05/16 21:40:12;;;;;;;2.97;0.65;;;17.90;92.00;;;;;;4942284;28;81793;-70
2022/05/16 21:42:38;;;;;;;3.42;0.63;;;17.90;91.70;;;;;;4942500;28;81921;-70
2022/05/16 21:45:24;;;;;;;4.45;0.82;;;17.90;91.80;;;;;;4941523;28;81611;-70
2022/05/16 21:47:52;;;;;;;2.97;0.90;;;18.00;91.90;;;;;;4941729;28;81823;-71
2022/05/16 21:50:19;;;;;;;4.03;1.10;;;17.90;91.90;;;;;;4940789;28;81906;-69
2022/05/16 21:52:46;;;;;;;3.22;0.60;;;17.90;91.90;;;;;;4942518;28;81856;-69
2022/05/16 21:55:13;;;;;;;2.78;0.40;;;17.90;92.10;;;;;;4936566;28;83039;-69
2022/05/16 21:57:38;;;;;;;3.75;0.63;;;17.90;92.30;;;;;;4940168;28;81691;-70
